createdAt,value
2018-12-15T00:00:39.741Z,1.1
2018-12-15T00:01:39.978Z,1.08
2018-12-15T00:02:40.213Z,1.11
2018-12-15T00:03:40.460Z,1.12
2018-12-15T00:04:40.508Z,1.08
2018-12-15T00:05:40.258Z,1.11
2018-12-15T00:06:40.547Z,1.08
2018-12-15T00:07:40.570Z,1.11
2018-12-15T00:08:40.320Z,1.1
2018-12-15T00:09:40.617Z,1.04
2018-12-15T00:10:40.394Z,1.12
2018-12-15T00:11:40.956Z,1.08
2018-12-15T00:12:40.413Z,1.07
2018-12-15T00:13:40.432Z,1.1
2018-12-15T00:14:40.772Z,1.1
2018-12-15T00:15:41.215Z,1.11
2018-12-15T00:16:40.835Z,1.07
2018-12-15T00:17:40.789Z,1.1
2018-12-15T00:18:40.933Z,1.07
2018-12-15T00:19:40.831Z,1.11
2018-12-15T00:20:40.891Z,1.03
2018-12-15T00:21:40.873Z,1.04
2018-12-15T00:22:40.633Z,1.1
2018-12-15T00:23:41.136Z,1.03
2018-12-15T00:24:41.457Z,1.07
2018-12-15T00:25:41.436Z,1.04
2018-12-15T00:26:41.189Z,1.07
2018-12-15T00:27:41.602Z,1.11
2018-12-15T00:28:41.237Z,1.08
2018-12-15T00:29:41.263Z,1
2018-12-15T00:30:41.291Z,1.07
2018-12-15T00:31:41.062Z,0.96
2018-12-15T00:32:41.321Z,1.04
2018-12-15T00:33:41.277Z,1.08
2018-12-15T00:34:41.378Z,1.04
2018-12-15T00:35:41.382Z,1.03
2018-12-15T00:36:41.177Z,1.02
2018-12-15T00:37:41.602Z,1.07
2018-12-15T00:38:41.436Z,1.14
2018-12-15T00:39:41.724Z,1.07
2018-12-15T00:40:41.826Z,1.07
2018-12-15T00:41:41.501Z,1.1
2018-12-15T00:42:41.521Z,0.99
2018-12-15T00:43:42.308Z,1.02
2018-12-15T00:44:42.478Z,0.99
2018-12-15T00:45:42.431Z,1.03
2018-12-15T00:46:42.141Z,1.04
2018-12-15T00:47:41.869Z,0.97
2018-12-15T00:48:42.373Z,1.07
2018-12-15T00:49:41.926Z,1.02
2018-12-15T00:50:42.471Z,1.02
2018-12-15T00:51:42.196Z,1
2018-12-15T00:52:42.184Z,1.03
2018-12-15T00:53:42.007Z,1.08
2018-12-15T00:54:42.762Z,1.04
2018-12-15T00:55:41.993Z,1.03
2018-12-15T00:56:42.392Z,1.1
2018-12-15T00:57:42.015Z,1.1
2018-12-15T00:58:42.306Z,1.07
2018-12-15T00:59:42.067Z,1.1
2018-12-15T01:00:42.095Z,1.07
2018-12-15T01:01:41.786Z,1.08
2018-12-15T01:02:42.971Z,1.07
2018-12-15T01:03:42.449Z,1.1
2018-12-15T01:04:42.266Z,1.1
2018-12-15T01:05:42.296Z,1.11
2018-12-15T01:06:42.662Z,1.07
2018-12-15T01:07:42.546Z,1.04
2018-12-15T01:08:42.826Z,1.08
2018-12-15T01:09:42.548Z,1.07
2018-12-15T01:10:43.547Z,1.03
2018-12-15T01:11:43.521Z,1.02
2018-12-15T01:12:43.234Z,1.07
2018-12-15T01:13:43.718Z,0.97
2018-12-15T01:14:44.456Z,0.99
2018-12-15T01:15:45.035Z,1
2018-12-15T01:16:44.241Z,0.99
2018-12-15T01:17:44.241Z,0.99
2018-12-15T01:18:44.209Z,1.03
2018-12-15T01:19:44.233Z,1
2018-12-15T01:20:44.720Z,0.96
2018-12-15T01:21:45.192Z,0.93
2018-12-15T01:22:44.773Z,0.93
2018-12-15T01:23:44.535Z,0.93
2018-12-15T01:24:45.044Z,0.93
2018-12-15T01:25:45.219Z,0.85
2018-12-15T01:26:44.938Z,0.89
2018-12-15T01:27:45.520Z,0.93
2018-12-15T01:28:45.234Z,0.9
2018-12-15T01:29:44.998Z,0.85
2018-12-15T01:30:45.143Z,0.99
2018-12-15T01:31:45.167Z,0.93
2018-12-15T01:32:44.856Z,0.92
2018-12-15T01:33:45.500Z,0.93
2018-12-15T01:34:45.545Z,0.97
2018-12-15T01:35:45.237Z,0.94
2018-12-15T01:36:45.221Z,0.92
2018-12-15T01:37:45.160Z,0.92
2018-12-15T01:38:45.052Z,0.9
2018-12-15T01:40:52.834Z,0.89
2018-12-15T01:41:52.852Z,0.89
2018-12-15T01:42:52.880Z,0.84
2018-12-15T01:43:52.880Z,0.9
2018-12-15T01:44:52.734Z,0.89
2018-12-15T01:45:53.210Z,0.9
2018-12-15T01:46:53.238Z,0.92
2018-12-15T01:47:53.268Z,0.94
2018-12-15T01:48:53.265Z,0.86
2018-12-15T01:49:53.294Z,0.85
2018-12-15T01:50:53.321Z,0.85
2018-12-15T01:51:53.332Z,0.89
2018-12-15T01:52:53.378Z,0.89
2018-12-15T01:53:53.538Z,0.78
2018-12-15T01:54:53.298Z,0.85
2018-12-15T01:55:54.038Z,0.71
2018-12-15T01:56:54.313Z,0.84
2018-12-15T01:57:54.356Z,0.86
2018-12-15T01:58:54.092Z,0.86
2018-12-15T01:59:54.110Z,0.86
2018-12-15T02:00:53.870Z,0.9
2018-12-15T02:01:54.603Z,0.93
2018-12-15T02:02:54.621Z,0.89
2018-12-15T02:03:54.652Z,0.92
2018-12-15T02:04:54.660Z,0.89
2018-12-15T02:05:54.693Z,0.84
2018-12-15T02:06:54.715Z,0.89
2018-12-15T02:07:54.725Z,0.84
2018-12-15T02:08:54.753Z,0.75
2018-12-15T02:09:54.515Z,0.76
2018-12-15T02:10:54.781Z,0.72
2018-12-15T02:11:55.945Z,0.81
2018-12-15T02:12:54.847Z,0.84
2018-12-15T02:13:54.589Z,0.76
2018-12-15T02:14:54.637Z,0.79
2018-12-15T02:15:55.122Z,0.69
2018-12-15T02:16:55.148Z,0.69
2018-12-15T02:17:54.898Z,0.81
2018-12-15T02:18:55.631Z,0.79
2018-12-15T02:19:55.651Z,0.72
2018-12-15T02:20:55.406Z,0.79
2018-12-15T02:21:55.935Z,0.79
2018-12-15T02:22:55.962Z,0.72
2018-12-15T02:23:55.739Z,0.69
2018-12-15T02:24:56.005Z,0.72
2018-12-15T02:25:56.012Z,0.75
2018-12-15T02:26:56.046Z,0.75
2018-12-15T02:27:56.065Z,0.66
2018-12-15T02:28:55.878Z,0.64
2018-12-15T02:29:56.103Z,0.64
2018-12-15T02:30:56.258Z,0.63
2018-12-15T02:31:56.176Z,0.67
2018-12-15T02:32:56.213Z,0.63
2018-12-15T02:33:56.194Z,0.61
2018-12-15T02:34:56.201Z,0.74
2018-12-15T02:35:56.221Z,0.64
2018-12-15T02:36:56.246Z,0.72
2018-12-15T02:37:56.003Z,0.64
2018-12-15T02:38:56.295Z,0.66
2018-12-15T02:39:56.297Z,0.61
2018-12-15T02:40:56.771Z,0.69
2018-12-15T02:41:56.961Z,0.64
2018-12-15T02:42:57.261Z,0.79
2018-12-15T02:43:57.493Z,0.67
2018-12-15T02:44:57.487Z,0.69
2018-12-15T02:45:57.498Z,0.74
2018-12-15T02:46:57.520Z,0.71
2018-12-15T02:47:57.582Z,0.81
2018-12-15T02:48:57.326Z,0.69
2018-12-15T02:49:57.515Z,0.76
2018-12-15T02:50:57.791Z,0.78
2018-12-15T02:51:57.834Z,0.72
2018-12-15T02:52:57.837Z,0.74
2018-12-15T02:53:57.859Z,0.66
2018-12-15T02:54:57.873Z,0.63
2018-12-15T02:55:58.675Z,0.74
2018-12-15T02:56:57.941Z,0.69
2018-12-15T02:57:58.245Z,0.67
2018-12-15T02:58:58.274Z,0.66
2018-12-15T02:59:58.300Z,0.64
2018-12-15T03:00:58.301Z,0.69
2018-12-15T03:01:57.792Z,0.6
2018-12-15T03:02:58.608Z,0.64
2018-12-15T03:03:58.693Z,0.66
2018-12-15T03:04:58.415Z,0.64
2018-12-15T03:05:58.802Z,0.72
2018-12-15T03:06:58.680Z,0.6
2018-12-15T03:07:58.730Z,0.74
2018-12-15T03:08:58.701Z,0.64
2018-12-15T03:09:58.741Z,0.66
2018-12-15T03:10:58.748Z,0.64
2018-12-15T03:11:58.542Z,0.64
2018-12-15T03:12:58.813Z,0.67
2018-12-15T03:13:58.857Z,0.67
2018-12-15T03:14:58.863Z,0.66
2018-12-15T03:15:58.874Z,0.64
2018-12-15T03:16:58.935Z,0.64
2018-12-15T03:17:58.676Z,0.74
2018-12-15T03:18:58.705Z,0.64
2018-12-15T03:19:59.197Z,0.75
2018-12-15T03:20:59.245Z,0.78
2018-12-15T03:21:59.259Z,0.69
2018-12-15T03:22:59.269Z,0.64
2018-12-15T03:23:59.356Z,0.71
2018-12-15T03:24:59.309Z,0.75
2018-12-15T03:25:59.384Z,0.76
2018-12-15T03:26:59.098Z,0.74
2018-12-15T03:27:59.556Z,0.79
2018-12-15T03:28:59.773Z,0.71
2018-12-15T03:29:59.769Z,0.66
2018-12-15T03:31:00.450Z,0.76
2018-12-15T03:32:00.426Z,0.66
2018-12-15T03:33:00.381Z,0.67
2018-12-15T03:34:00.413Z,0.66
2018-12-15T03:35:00.431Z,0.72
2018-12-15T03:36:00.421Z,0.71
2018-12-15T03:37:00.476Z,0.61
2018-12-15T03:38:00.459Z,0.6
2018-12-15T03:39:00.542Z,0.64
2018-12-15T03:40:00.555Z,0.64
2018-12-15T03:41:00.592Z,0.67
2018-12-15T03:42:00.312Z,0.64
2018-12-15T03:43:00.973Z,0.63
2018-12-15T03:44:00.992Z,0.64
2018-12-15T03:45:01.047Z,0.72
2018-12-15T03:46:01.031Z,0.75
2018-12-15T03:47:01.101Z,0.74
2018-12-15T03:48:01.886Z,0.69
2018-12-15T03:49:01.886Z,0.71
2018-12-15T03:50:01.668Z,0.61
2018-12-15T03:51:01.935Z,0.67
2018-12-15T03:52:01.964Z,0.64
2018-12-15T03:53:01.964Z,0.67
2018-12-15T03:54:01.839Z,0.69
2018-12-15T03:55:02.407Z,0.64
2018-12-15T03:56:02.526Z,0.66
2018-12-15T03:57:02.442Z,0.64
2018-12-15T03:58:02.515Z,0.66
2018-12-15T03:59:02.489Z,0.63
2018-12-15T04:01:02.587Z,0.63
2018-12-15T04:02:02.524Z,0.63
2018-12-15T04:03:02.808Z,0.69
2018-12-15T04:04:02.774Z,0.61
2018-12-15T04:05:02.783Z,0.58
2018-12-15T04:06:02.755Z,0.64
2018-12-15T04:07:02.899Z,0.61
2018-12-15T04:08:03.323Z,0.64
2018-12-15T04:09:03.547Z,0.61
2018-12-15T04:10:03.595Z,0.67
2018-12-15T04:11:03.717Z,0.64
2018-12-15T04:12:04.159Z,0.6
2018-12-15T04:13:04.380Z,0.67
2018-12-15T04:14:04.451Z,0.53
2018-12-15T04:15:04.481Z,0.64
2018-12-15T04:16:04.154Z,0.56
2018-12-15T04:17:04.530Z,0.56
2018-12-15T04:18:08.669Z,0.66
2018-12-15T04:19:04.622Z,0.6
2018-12-15T04:20:04.892Z,0.63
2018-12-15T04:21:04.606Z,0.64
2018-12-15T04:22:05.016Z,0.69
2018-12-15T04:23:05.211Z,0.66
2018-12-15T04:24:04.776Z,0.64
2018-12-15T04:25:05.322Z,0.6
2018-12-15T04:26:05.289Z,0.63
2018-12-15T04:27:05.047Z,0.67
2018-12-15T04:28:05.428Z,0.63
2018-12-15T04:29:05.809Z,0.64
2018-12-15T04:30:06.090Z,0.63
2018-12-15T04:31:06.712Z,0.69
2018-12-15T04:32:07.136Z,0.64
2018-12-15T04:33:07.132Z,0.63
2018-12-15T04:34:07.183Z,0.6
2018-12-15T04:35:07.211Z,0.63
2018-12-15T04:36:07.580Z,0.61
2018-12-15T04:37:07.407Z,0.66
2018-12-15T04:38:07.882Z,0.66
2018-12-15T04:39:07.975Z,0.64
2018-12-15T04:40:08.466Z,0.6
2018-12-15T04:41:08.979Z,0.72
2018-12-15T04:42:09.451Z,0.64
2018-12-15T04:43:09.178Z,0.66
2018-12-15T04:44:09.419Z,0.67
2018-12-15T04:45:09.275Z,0.64
2018-12-15T04:46:09.493Z,0.78
2018-12-15T04:47:09.504Z,0.74
2018-12-15T04:48:16.580Z,0.66
2018-12-15T04:49:15.908Z,0.75
2018-12-15T04:50:16.540Z,0.75
2018-12-15T04:51:17.005Z,0.79
2018-12-15T04:52:17.135Z,0.72
2018-12-15T04:53:17.758Z,0.74
2018-12-15T04:54:17.775Z,0.76
2018-12-15T04:55:18.993Z,0.63
2018-12-15T04:56:17.821Z,0.78
2018-12-15T04:57:17.839Z,0.63
2018-12-15T04:58:17.623Z,0.78
2018-12-15T04:59:17.873Z,0.74
2018-12-15T05:01:17.943Z,0.74
2018-12-15T05:02:18.379Z,0.69
2018-12-15T05:03:18.753Z,0.76
2018-12-15T05:04:18.529Z,0.76
2018-12-15T05:05:18.623Z,0.72
2018-12-15T05:06:18.667Z,0.72
2018-12-15T05:07:19.035Z,0.76
2018-12-15T05:08:19.183Z,0.64
2018-12-15T05:09:19.184Z,0.74
2018-12-15T05:10:19.318Z,0.78
2018-12-15T05:11:19.616Z,0.67
2018-12-15T05:12:19.743Z,0.76
2018-12-15T05:13:19.752Z,0.64
2018-12-15T05:14:19.933Z,0.74
2018-12-15T05:15:19.951Z,0.66
2018-12-15T05:16:20.083Z,0.64
2018-12-15T05:17:20.204Z,0.74
2018-12-15T05:18:23.711Z,0.74
2018-12-15T05:19:24.091Z,0.66
2018-12-15T05:20:24.101Z,0.6
2018-12-15T05:21:23.861Z,0.76
2018-12-15T05:22:24.224Z,0.69
2018-12-15T05:23:24.839Z,0.75
2018-12-15T05:24:25.233Z,0.75
2018-12-15T05:25:25.254Z,0.74
2018-12-15T05:26:25.030Z,0.66
2018-12-15T05:27:25.650Z,0.78
2018-12-15T05:28:25.786Z,0.69
2018-12-15T05:29:26.177Z,0.72
2018-12-15T05:30:26.523Z,0.69
2018-12-15T05:31:26.550Z,0.71
2018-12-15T05:32:26.603Z,0.75
2018-12-15T05:33:27.066Z,0.82
2018-12-15T05:34:27.007Z,0.72
2018-12-15T05:35:27.117Z,0.78
2018-12-15T05:36:27.785Z,0.79
2018-12-15T05:37:27.517Z,0.76
2018-12-15T05:38:27.899Z,0.67
2018-12-15T05:39:27.912Z,0.81
2018-12-15T05:40:27.710Z,0.82
2018-12-15T05:41:28.342Z,0.74
2018-12-15T05:42:28.367Z,0.76
2018-12-15T05:43:28.738Z,0.85
2018-12-15T05:44:28.833Z,0.75
2018-12-15T05:45:29.489Z,0.81
2018-12-15T05:46:29.247Z,0.75
2018-12-15T05:47:29.610Z,0.78
2018-12-15T05:48:30.897Z,0.78
2018-12-15T05:49:30.391Z,0.85
2018-12-15T05:50:30.935Z,0.72
2018-12-15T05:51:31.031Z,0.82
2018-12-15T05:52:31.153Z,0.78
2018-12-15T05:53:31.782Z,0.75
2018-12-15T05:54:31.961Z,0.78
2018-12-15T05:55:32.574Z,0.78
2018-12-15T05:56:32.615Z,0.74
2018-12-15T05:57:32.492Z,0.75
2018-12-15T05:58:33.190Z,0.72
2018-12-15T05:59:33.203Z,0.75
2018-12-15T06:00:33.257Z,0.78
2018-12-15T06:01:33.239Z,0.84
2018-12-15T06:02:33.011Z,0.69
2018-12-15T06:03:33.128Z,0.72
2018-12-15T06:04:33.490Z,0.79
2018-12-15T06:05:33.861Z,0.72
2018-12-15T06:06:34.224Z,0.74
2018-12-15T06:07:33.979Z,0.64
2018-12-15T06:08:34.321Z,0.66
2018-12-15T06:09:34.434Z,0.64
2018-12-15T06:10:34.489Z,0.72
2018-12-15T06:11:34.608Z,0.71
2018-12-15T06:12:34.622Z,0.72
2018-12-15T06:13:34.638Z,0.79
2018-12-15T06:14:34.668Z,0.74
2018-12-15T06:15:34.798Z,0.76
2018-12-15T06:16:35.159Z,0.76
2018-12-15T06:17:35.184Z,0.81
2018-12-15T06:18:36.923Z,0.74
2018-12-15T06:19:37.259Z,0.76
2018-12-15T06:20:37.009Z,0.76
2018-12-15T06:21:37.663Z,0.81
2018-12-15T06:22:37.766Z,0.81
2018-12-15T06:23:38.584Z,0.9
2018-12-15T06:24:38.939Z,0.82
2018-12-15T06:25:39.068Z,0.89
2018-12-15T06:26:39.688Z,0.84
2018-12-15T06:27:39.698Z,0.84
2018-12-15T06:28:39.721Z,0.85
2018-12-15T06:29:39.741Z,0.85
2018-12-15T06:30:39.756Z,0.85
2018-12-15T06:31:40.091Z,0.89
2018-12-15T06:32:40.467Z,0.92
2018-12-15T06:33:40.211Z,0.86
2018-12-15T06:34:40.642Z,0.94
2018-12-15T06:35:40.996Z,0.9
2018-12-15T06:36:41.076Z,0.93
2018-12-15T06:37:41.435Z,0.86
2018-12-15T06:38:41.461Z,0.85
2018-12-15T06:39:41.832Z,0.92
2018-12-15T06:40:41.584Z,0.94
2018-12-15T06:41:41.946Z,0.92
2018-12-15T06:42:41.971Z,0.94
2018-12-15T06:43:41.994Z,0.85
2018-12-15T06:44:42.349Z,0.99
2018-12-15T06:45:42.711Z,0.9
2018-12-15T06:46:42.471Z,0.94
2018-12-15T06:47:42.845Z,0.92
2018-12-15T06:48:43.709Z,0.86
2018-12-15T06:49:43.710Z,0.9
2018-12-15T06:50:43.752Z,0.86
2018-12-15T06:51:43.893Z,0.89
2018-12-15T06:52:44.498Z,0.82
2018-12-15T06:53:44.710Z,0.82
2018-12-15T06:54:45.331Z,0.9
2018-12-15T06:55:45.990Z,0.9
2018-12-15T06:56:45.363Z,0.94
2018-12-15T06:57:45.414Z,0.9
2018-12-15T06:58:45.521Z,0.9
2018-12-15T06:59:45.309Z,0.92
2018-12-15T07:00:45.752Z,0.94
2018-12-15T07:01:45.446Z,0.93
2018-12-15T07:02:45.561Z,0.9
2018-12-15T07:03:45.863Z,0.93
2018-12-15T07:04:45.881Z,0.89
2018-12-15T07:05:45.646Z,0.94
2018-12-15T07:06:47.441Z,0.93
2018-12-15T07:07:47.476Z,0.96
2018-12-15T07:08:47.914Z,0.92
2018-12-15T07:09:47.934Z,0.93
2018-12-15T07:10:47.688Z,0.9
2018-12-15T07:11:47.782Z,0.84
2018-12-15T07:12:47.996Z,0.89
2018-12-15T07:13:48.371Z,0.86
2018-12-15T07:14:48.209Z,0.85
2018-12-15T07:15:48.641Z,0.85
2018-12-15T07:16:48.372Z,0.85
2018-12-15T07:17:48.710Z,0.86
2018-12-15T07:18:50.074Z,0.89
2018-12-15T07:19:48.750Z,0.85
2018-12-15T07:20:49.136Z,0.85
2018-12-15T07:21:49.152Z,0.89
2018-12-15T07:22:48.908Z,0.86
2018-12-15T07:23:49.194Z,0.86
2018-12-15T07:24:49.215Z,0.94
2018-12-15T07:25:49.267Z,0.89
2018-12-15T07:26:49.254Z,0.84
2018-12-15T07:27:49.612Z,0.89
2018-12-15T07:28:49.728Z,0.96
2018-12-15T07:29:50.003Z,0.86
2018-12-15T07:30:49.769Z,0.9
2018-12-15T07:31:49.919Z,0.89
2018-12-15T07:32:50.530Z,0.9
2018-12-15T07:33:50.872Z,0.86
2018-12-15T07:34:51.238Z,0.89
2018-12-15T07:35:50.997Z,0.86
2018-12-15T07:36:51.416Z,0.86
2018-12-15T07:37:51.418Z,0.86
2018-12-15T07:38:51.453Z,0.86
2018-12-15T07:39:52.072Z,0.9
2018-12-15T07:40:51.616Z,0.94
2018-12-15T07:41:52.237Z,0.86
2018-12-15T07:42:52.612Z,0.94
2018-12-15T07:43:52.662Z,0.96
2018-12-15T07:44:52.759Z,0.84
2018-12-15T07:45:53.138Z,0.84
2018-12-15T07:46:53.542Z,0.84
2018-12-15T07:47:53.562Z,0.86
2018-12-15T07:48:56.439Z,0.86
2018-12-15T07:49:53.611Z,0.85
2018-12-15T07:50:53.733Z,0.85
2018-12-15T07:51:54.012Z,0.86
2018-12-15T07:52:54.049Z,0.93
2018-12-15T07:53:54.053Z,0.92
2018-12-15T07:54:54.402Z,0.94
2018-12-15T07:55:54.172Z,0.92
2018-12-15T07:56:54.546Z,0.93
2018-12-15T07:57:54.893Z,0.97
2018-12-15T07:58:55.243Z,1.07
2018-12-15T07:59:55.360Z,1.18
2018-12-15T08:00:55.372Z,1.11
2018-12-15T08:01:55.336Z,1.21
2018-12-15T08:02:55.385Z,1.17
2018-12-15T08:03:55.387Z,1.26
2018-12-15T08:04:55.403Z,1.21
2018-12-15T08:05:55.424Z,1.33
2018-12-15T08:06:55.530Z,1.22
2018-12-15T08:07:55.471Z,1.29
2018-12-15T08:08:55.206Z,1.35
2018-12-15T08:09:55.666Z,1.3
2018-12-15T08:10:55.695Z,1.33
2018-12-15T08:11:55.698Z,1.35
2018-12-15T08:12:55.710Z,1.36
2018-12-15T08:13:55.474Z,1.29
2018-12-15T08:14:56.178Z,1.38
2018-12-15T08:15:56.217Z,1.44
2018-12-15T08:16:56.224Z,1.4
2018-12-15T08:17:56.417Z,1.39
2018-12-15T08:19:03.159Z,1.38
2018-12-15T08:20:03.413Z,1.42
2018-12-15T08:21:03.458Z,1.32
2018-12-15T08:22:03.461Z,1.46
2018-12-15T08:23:03.471Z,1.44
2018-12-15T08:24:03.228Z,1.56
2018-12-15T08:25:03.635Z,1.53
2018-12-15T08:26:04.375Z,1.54
2018-12-15T08:27:04.366Z,1.58
2018-12-15T08:28:04.394Z,1.57
2018-12-15T08:29:04.385Z,1.6
2018-12-15T08:30:04.160Z,1.53
2018-12-15T08:31:04.625Z,1.51
2018-12-15T08:32:05.313Z,1.44
2018-12-15T08:33:05.345Z,1.46
2018-12-15T08:34:05.084Z,1.6
2018-12-15T08:35:05.539Z,1.51
2018-12-15T08:36:05.788Z,1.53
2018-12-15T08:37:06.183Z,1.53
2018-12-15T08:38:06.261Z,1.56
2018-12-15T08:39:05.946Z,1.64
2018-12-15T08:40:06.686Z,1.58
2018-12-15T08:41:06.670Z,1.69
2018-12-15T08:42:06.686Z,1.61
2018-12-15T08:43:06.670Z,1.68
2018-12-15T08:44:07.131Z,1.74
2018-12-15T08:45:07.222Z,1.69
2018-12-15T08:46:06.865Z,1.74
2018-12-15T08:47:07.040Z,1.71
2018-12-15T08:48:07.560Z,1.69
2018-12-15T08:49:09.720Z,1.69
2018-12-15T08:50:07.663Z,1.87
2018-12-15T08:51:07.626Z,1.74
2018-12-15T08:52:07.387Z,1.82
2018-12-15T08:53:08.061Z,1.76
2018-12-15T08:54:08.108Z,1.78
2018-12-15T08:55:08.295Z,1.78
2018-12-15T08:56:08.742Z,1.76
2018-12-15T08:57:08.752Z,1.71
2018-12-15T08:58:08.749Z,1.69
2018-12-15T08:59:08.799Z,1.83
2018-12-15T09:01:08.836Z,1.76
2018-12-15T09:02:09.247Z,1.84
2018-12-15T09:03:08.977Z,1.87
2018-12-15T09:04:09.381Z,1.83
2018-12-15T09:05:09.648Z,1.84
2018-12-15T09:06:09.577Z,1.84
2018-12-15T09:07:09.961Z,1.89
2018-12-15T09:08:09.727Z,1.9
2018-12-15T09:09:10.006Z,1.93
2018-12-15T09:10:10.468Z,1.92
2018-12-15T09:11:10.864Z,2.05
2018-12-15T09:12:10.860Z,2.05
2018-12-15T09:13:10.793Z,2.05
2018-12-15T09:14:11.406Z,2.08
2018-12-15T09:15:11.159Z,2.08
2018-12-15T09:16:11.197Z,2.06
2018-12-15T09:17:11.806Z,2.12
2018-12-15T09:18:12.335Z,2.2
2018-12-15T09:19:15.983Z,2.24
2018-12-15T09:20:12.202Z,2.24
2018-12-15T09:21:12.210Z,2.22
2018-12-15T09:22:16.110Z,2.24
2018-12-15T09:23:12.289Z,2.22
2018-12-15T09:24:12.277Z,2.27
2018-12-15T09:25:12.304Z,2.16
2018-12-15T09:26:12.307Z,2.23
2018-12-15T09:27:12.155Z,2.36
2018-12-15T09:28:12.422Z,2.31
2018-12-15T09:29:12.260Z,2.31
2018-12-15T09:30:12.608Z,2.34
2018-12-15T09:31:12.708Z,2.38
2018-12-15T09:32:12.812Z,2.36
2018-12-15T09:33:12.921Z,2.29
2018-12-15T09:34:13.551Z,2.34
2018-12-15T09:35:13.808Z,2.4
2018-12-15T09:36:13.797Z,2.38
2018-12-15T09:37:14.168Z,2.4
2018-12-15T09:38:14.497Z,2.34
2018-12-15T09:39:14.845Z,2.29
2018-12-15T09:40:15.489Z,2.29
2018-12-15T09:41:14.752Z,2.29
2018-12-15T09:42:15.291Z,2.29
2018-12-15T09:43:15.062Z,2.24
2018-12-15T09:44:15.148Z,2.23
2018-12-15T09:45:15.792Z,2.31
2018-12-15T09:46:15.471Z,2.38
2018-12-15T09:47:15.473Z,2.31
2018-12-15T09:48:15.832Z,2.34
2018-12-15T09:49:22.385Z,2.36
2018-12-15T09:50:15.872Z,2.33
2018-12-15T09:51:15.643Z,2.33
2018-12-15T09:52:15.758Z,2.33
2018-12-15T09:53:16.393Z,2.38
2018-12-15T09:54:16.120Z,2.34
2018-12-15T09:55:16.557Z,2.29
2018-12-15T09:56:16.531Z,2.16
2018-12-15T09:57:16.966Z,2.27
2018-12-15T09:58:17.360Z,2.2
2018-12-15T09:59:17.745Z,2.22
2018-12-15T10:00:17.964Z,2.16
2018-12-15T10:01:18.819Z,2.18
2018-12-15T10:02:17.820Z,2.18
2018-12-15T10:03:17.865Z,2.2
2018-12-15T10:04:17.868Z,2.16
2018-12-15T10:05:17.901Z,2.11
2018-12-15T10:06:17.917Z,2.06
2018-12-15T10:07:17.919Z,2.16
2018-12-15T10:08:17.933Z,2.11
2018-12-15T10:09:17.985Z,2.11
2018-12-15T10:10:18.444Z,2.06
2018-12-15T10:11:18.942Z,2.05
2018-12-15T10:12:18.647Z,2.12
2018-12-15T10:13:19.370Z,2.12
2018-12-15T10:14:19.377Z,2.09
2018-12-15T10:15:19.125Z,2.15
2018-12-15T10:16:19.566Z,2.16
2018-12-15T10:17:19.564Z,2.15
2018-12-15T10:18:19.612Z,2.2
2018-12-15T10:19:24.167Z,2.09
2018-12-15T10:20:19.914Z,2.12
2018-12-15T10:21:19.662Z,2.06
2018-12-15T10:22:19.851Z,2.06
2018-12-15T10:23:19.613Z,2.06
2018-12-15T10:24:20.337Z,1.97
2018-12-15T10:25:20.363Z,1.97
2018-12-15T10:26:20.105Z,2.09
2018-12-15T10:27:20.622Z,1.98
2018-12-15T10:28:20.598Z,1.94
2018-12-15T10:29:21.685Z,1.97
2018-12-15T10:30:20.643Z,1.89
2018-12-15T10:31:20.923Z,1.89
2018-12-15T10:32:20.664Z,1.9
2018-12-15T10:33:21.170Z,1.93
2018-12-15T10:34:21.182Z,1.94
2018-12-15T10:35:21.445Z,2.01
2018-12-15T10:36:21.223Z,1.97
2018-12-15T10:37:21.250Z,1.9
2018-12-15T10:38:21.674Z,1.92
2018-12-15T10:39:21.017Z,1.92
2018-12-15T10:40:21.561Z,1.93
2018-12-15T10:41:21.921Z,1.98
2018-12-15T10:42:21.618Z,2.09
2018-12-15T10:43:21.817Z,2.04
2018-12-15T10:44:21.806Z,2.05
2018-12-15T10:45:22.175Z,2.06
2018-12-15T10:46:22.691Z,2.08
2018-12-15T10:47:22.112Z,2.04
2018-12-15T10:48:22.841Z,2.05
2018-12-15T10:49:22.842Z,2.08
2018-12-15T10:50:22.922Z,2.06
2018-12-15T10:51:22.933Z,2.13
2018-12-15T10:52:22.912Z,2.13
2018-12-15T10:53:22.943Z,2.11
2018-12-15T10:54:22.942Z,2.13
2018-12-15T10:55:23.147Z,2.15
2018-12-15T10:56:23.021Z,2.22
2018-12-15T10:57:23.038Z,2.09
2018-12-15T10:58:23.043Z,2.22
2018-12-15T10:59:22.791Z,2.06
2018-12-15T11:00:22.735Z,2.18
2018-12-15T11:01:23.731Z,2.04
2018-12-15T11:02:23.623Z,2.12
2018-12-15T11:03:23.865Z,2.2
2018-12-15T11:04:23.811Z,2.13
2018-12-15T11:05:24.245Z,2.08
2018-12-15T11:06:24.248Z,2.05
2018-12-15T11:07:24.639Z,2.15
2018-12-15T11:08:24.681Z,2.11
2018-12-15T11:09:25.100Z,2.16
2018-12-15T11:10:24.897Z,2.16
2018-12-15T11:11:25.340Z,2.22
2018-12-15T11:12:25.363Z,2.18
2018-12-15T11:13:25.380Z,2.18
2018-12-15T11:14:25.139Z,2.23
2018-12-15T11:15:25.958Z,2.26
2018-12-15T11:16:26.207Z,2.22
2018-12-15T11:17:26.630Z,2.27
2018-12-15T11:18:26.663Z,2.2
2018-12-15T11:19:26.388Z,2.29
2018-12-15T11:20:26.696Z,2.29
2018-12-15T11:21:26.720Z,2.26
2018-12-15T11:22:26.754Z,2.29
2018-12-15T11:23:26.761Z,2.36
2018-12-15T11:24:26.781Z,2.3
2018-12-15T11:25:26.831Z,2.26
2018-12-15T11:26:26.996Z,2.4
2018-12-15T11:27:27.386Z,2.34
2018-12-15T11:28:27.474Z,2.33
2018-12-15T11:29:27.454Z,2.38
2018-12-15T11:30:27.491Z,2.33
2018-12-15T11:31:27.498Z,2.27
2018-12-15T11:32:27.564Z,2.31
2018-12-15T11:33:27.534Z,2.3
2018-12-15T11:34:27.571Z,2.36
2018-12-15T11:35:27.590Z,2.36
2018-12-15T11:36:27.614Z,2.33
2018-12-15T11:37:27.972Z,2.34
2018-12-15T11:38:27.652Z,2.23
2018-12-15T11:39:27.683Z,2.24
2018-12-15T11:40:28.074Z,2.3
2018-12-15T11:41:28.530Z,2.23
2018-12-15T11:42:28.527Z,2.22
2018-12-15T11:43:29.010Z,2.15
2018-12-15T11:44:28.878Z,2.06
2018-12-15T11:45:28.786Z,2.18
2018-12-15T11:46:29.505Z,2.05
2018-12-15T11:47:29.487Z,2.16
2018-12-15T11:48:29.291Z,2.2
2018-12-15T11:49:29.977Z,2.08
2018-12-15T11:50:30.302Z,2.04
2018-12-15T11:51:30.053Z,2.06
2018-12-15T11:52:30.084Z,2.11
2018-12-15T11:53:30.468Z,2.15
2018-12-15T11:54:30.094Z,2.15
2018-12-15T11:55:30.136Z,2.2
2018-12-15T11:56:30.153Z,2.2
2018-12-15T11:57:30.160Z,2.2
2018-12-15T11:58:31.215Z,2.2
2018-12-15T11:59:30.679Z,2.23
2018-12-15T12:00:30.709Z,2.23
2018-12-15T12:01:30.936Z,2.29
2018-12-15T12:02:36.785Z,2.24
2018-12-15T12:03:30.782Z,2.2
2018-12-15T12:04:30.808Z,2.23
2018-12-15T12:05:30.819Z,2.26
2018-12-15T12:06:30.565Z,2.24
2018-12-15T12:07:31.147Z,2.2
2018-12-15T12:08:31.211Z,2.23
2018-12-15T12:09:31.185Z,2.23
2018-12-15T12:10:31.191Z,2.23
2018-12-15T12:11:31.680Z,2.22
2018-12-15T12:12:31.917Z,2.26
2018-12-15T12:13:31.718Z,2.26
2018-12-15T12:14:31.740Z,2.16
2018-12-15T12:15:31.939Z,2.24
2018-12-15T12:16:32.402Z,2.26
2018-12-15T12:17:32.346Z,2.27
2018-12-15T12:18:33.076Z,2.18
2018-12-15T12:19:33.090Z,2.18
2018-12-15T12:20:34.090Z,2.2
2018-12-15T12:21:32.883Z,2.2
2018-12-15T12:22:33.188Z,2.22
2018-12-15T12:23:32.676Z,2.18
2018-12-15T12:24:33.237Z,2.29
2018-12-15T12:25:32.978Z,2.2
2018-12-15T12:26:33.254Z,2.26
2018-12-15T12:27:33.274Z,2.24
2018-12-15T12:28:33.290Z,2.2
2018-12-15T12:29:33.312Z,2.3
2018-12-15T12:30:33.842Z,2.27
2018-12-15T12:31:33.607Z,2.31
2018-12-15T12:32:33.868Z,2.31
2018-12-15T12:33:33.641Z,2.27
2018-12-15T12:34:33.910Z,2.33
2018-12-15T12:35:34.146Z,2.23
2018-12-15T12:36:34.698Z,2.26
2018-12-15T12:37:34.165Z,2.31
2018-12-15T12:38:34.369Z,2.24
2018-12-15T12:39:34.656Z,2.2
2018-12-15T12:40:34.489Z,2.24
2018-12-15T12:41:34.718Z,2.26
2018-12-15T12:42:34.743Z,2.24
2018-12-15T12:43:34.772Z,2.26
2018-12-15T12:44:34.487Z,2.27
2018-12-15T12:45:34.989Z,2.18
2018-12-15T12:46:35.025Z,2.23
2018-12-15T12:47:34.982Z,2.18
2018-12-15T12:48:35.738Z,2.2
2018-12-15T12:49:35.477Z,2.15
2018-12-15T12:50:35.309Z,2.13
2018-12-15T12:51:35.521Z,2.11
2018-12-15T12:52:35.551Z,2.11
2018-12-15T12:53:35.552Z,2.16
2018-12-15T12:54:35.576Z,2.08
2018-12-15T12:55:35.630Z,2.08
2018-12-15T12:56:35.369Z,2.15
2018-12-15T12:57:35.145Z,2.12
2018-12-15T12:58:35.424Z,2.02
2018-12-15T12:59:35.949Z,2.12
2018-12-15T13:00:36.164Z,2.12
2018-12-15T13:01:38.158Z,2.09
2018-12-15T13:02:36.246Z,2.08
2018-12-15T13:03:35.914Z,2.12
2018-12-15T13:04:36.249Z,2.09
2018-12-15T13:05:36.237Z,2.13
2018-12-15T13:06:36.262Z,2.05
2018-12-15T13:07:36.559Z,2.11
2018-12-15T13:08:36.690Z,2.18
2018-12-15T13:09:36.446Z,2.11
2018-12-15T13:10:35.972Z,2.13
2018-12-15T13:11:36.678Z,2.08
2018-12-15T13:12:36.280Z,2.06
2018-12-15T13:13:40.110Z,2.08
2018-12-15T13:14:37.258Z,2.06
2018-12-15T13:15:36.807Z,2.05
2018-12-15T13:16:36.472Z,2.04
2018-12-15T13:17:36.846Z,2.04
2018-12-15T13:18:36.713Z,2.05
2018-12-15T13:19:36.346Z,2.05
2018-12-15T13:20:36.913Z,2.04
2018-12-15T13:21:37.275Z,2.11
2018-12-15T13:22:36.633Z,2.04
2018-12-15T13:23:36.874Z,2.05
2018-12-15T13:24:36.933Z,2.04
2018-12-15T13:25:36.847Z,2.05
2018-12-15T13:26:39.882Z,2.05
2018-12-15T13:27:37.547Z,2.05